createdAt,value
2022-10-15T00:00:42.478Z,2.40
2022-10-15T00:03:09.987Z,1.98
2022-10-15T00:05:38.636Z,1.30
2022-10-15T00:08:06.204Z,1.13
2022-10-15T00:10:35.552Z,2.58
2022-10-15T00:15:31.018Z,2.33
2022-10-15T00:17:58.212Z,1.95
2022-10-15T00:20:25.395Z,0.52
2022-10-15T00:22:52.024Z,0.75
2022-10-15T00:25:18.659Z,0.65
2022-10-15T00:27:46.454Z,1.52
2022-10-15T00:30:13.466Z,2.50
2022-10-15T00:32:40.149Z,2.22
2022-10-15T00:35:07.301Z,2.13
2022-10-15T00:37:33.966Z,0.65
2022-10-15T00:42:27.555Z,1.45
2022-10-15T00:44:59.609Z,0.95
2022-10-15T00:47:49.135Z,1.40
2022-10-15T00:50:24.929Z,0.40
2022-10-15T00:53:05.354Z,0.55
2022-10-15T00:55:38.498Z,2.42
2022-10-15T00:58:10.493Z,0.40
2022-10-15T01:00:37.436Z,1.13
2022-10-15T01:03:04.786Z,0.95
2022-10-15T01:05:32.202Z,1.45
2022-10-15T01:07:59.365Z,1.83
2022-10-15T01:10:38.073Z,1.17
2022-10-15T01:13:19.405Z,1.25
2022-10-15T01:16:08.565Z,1.73
2022-10-15T01:18:50.698Z,1.10
2022-10-15T01:21:23.670Z,1.67
2022-10-15T01:24:02.079Z,1.35
2022-10-15T01:27:15.452Z,1.63
2022-10-15T01:30:05.224Z,2.47
2022-10-15T01:32:41.686Z,0.30
2022-10-15T01:35:32.071Z,1.85
2022-10-15T01:38:12.689Z,2.83
2022-10-15T01:40:50.468Z,0.10
2022-10-15T01:43:24.883Z,0.30
2022-10-15T01:46:43.155Z,0.10
2022-10-15T01:49:21.292Z,2.05
2022-10-15T01:51:51.216Z,0.38
2022-10-15T01:54:22.514Z,0.95
2022-10-15T01:56:54.254Z,0.25
2022-10-15T01:59:30.377Z,0.10
2022-10-15T02:01:58.416Z,2.35
2022-10-15T02:04:28.895Z,0.20
2022-10-15T02:07:05.281Z,1.75
2022-10-15T02:09:50.648Z,0.10
2022-10-15T02:12:57.015Z,1.23
2022-10-15T02:15:35.281Z,0.75
2022-10-15T02:18:11.244Z,0.43
2022-10-15T02:20:51.310Z,0.10
2022-10-15T02:23:21.436Z,0.50
2022-10-15T02:25:50.778Z,0.98
2022-10-15T02:28:18.606Z,0.60
2022-10-15T02:30:51.452Z,0.47
2022-10-15T02:33:20.783Z,0.73
2022-10-15T02:35:50.374Z,0.80
2022-10-15T02:38:24.045Z,0.90
2022-10-15T02:40:52.956Z,0.60
2022-10-15T02:43:21.573Z,0.40
2022-10-15T02:45:50.276Z,0.75
2022-10-15T02:48:19.324Z,0.20
2022-10-15T02:50:48.676Z,0.20
2022-10-15T02:53:15.140Z,0.40
2022-10-15T02:55:43.051Z,0.30
2022-10-15T02:58:10.169Z,0.22
2022-10-15T03:00:37.192Z,0.40
2022-10-15T03:03:03.995Z,1.95
2022-10-15T03:05:30.770Z,0.60
2022-10-15T03:08:01.140Z,0.35
2022-10-15T03:10:30.001Z,0.22
2022-10-15T03:13:03.636Z,0.43
2022-10-15T03:15:34.163Z,2.75
2022-10-15T03:18:01.208Z,0.55
2022-10-15T03:20:27.880Z,0.85
2022-10-15T03:22:54.820Z,0.22
2022-10-15T03:25:22.081Z,2.03
2022-10-15T03:27:58.460Z,0.30
2022-10-15T03:30:33.698Z,1.30
2022-10-15T03:33:00.710Z,0.65
2022-10-15T03:35:27.360Z,1.20
2022-10-15T03:37:54.815Z,1.70
2022-10-15T03:40:21.804Z,0.77
2022-10-15T03:42:53.802Z,0.80
2022-10-15T03:45:25.481Z,2.13
2022-10-15T03:48:06.767Z,0.85
2022-10-15T03:50:34.618Z,1.25
2022-10-15T03:53:05.080Z,1.35
2022-10-15T03:55:32.702Z,0.80
2022-10-15T03:57:59.994Z,0.90
2022-10-15T04:00:28.209Z,0.60
2022-10-15T04:02:58.914Z,1.08
2022-10-15T04:05:27.580Z,1.88
2022-10-15T04:08:00.449Z,1.90
2022-10-15T04:10:30.835Z,1.00
2022-10-15T04:12:57.569Z,1.75
2022-10-15T04:15:24.238Z,1.50
2022-10-15T04:17:59.134Z,1.00
2022-10-15T04:20:28.917Z,3.20
2022-10-15T04:23:08.296Z,1.77
2022-10-15T04:25:39.037Z,1.58
2022-10-15T04:28:09.131Z,3.63
2022-10-15T04:30:38.578Z,1.02
2022-10-15T04:33:09.618Z,0.77
2022-10-15T04:35:36.656Z,0.95
2022-10-15T04:38:13.633Z,2.15
2022-10-15T04:41:13.437Z,0.70
2022-10-15T04:44:05.962Z,0.85
2022-10-15T04:46:33.604Z,0.82
2022-10-15T04:49:08.742Z,1.15
2022-10-15T04:51:35.503Z,1.15
2022-10-15T04:54:12.240Z,2.03
2022-10-15T04:56:53.871Z,0.73
2022-10-15T04:59:21.759Z,1.45
2022-10-15T05:02:07.275Z,1.00
2022-10-15T05:04:35.576Z,2.58
2022-10-15T05:07:02.253Z,0.70
2022-10-15T05:09:28.779Z,3.40
2022-10-15T05:11:57.985Z,1.42
2022-10-15T05:14:26.966Z,1.17
2022-10-15T05:17:05.885Z,3.30
2022-10-15T05:19:38.566Z,1.67
2022-10-15T05:22:06.383Z,1.50
2022-10-15T05:24:37.365Z,1.77
2022-10-15T05:27:24.645Z,1.98
2022-10-15T05:29:51.196Z,2.47
2022-10-15T05:32:18.131Z,3.60
2022-10-15T05:34:44.996Z,2.03
2022-10-15T05:37:15.398Z,3.05
2022-10-15T05:39:43.043Z,1.38
2022-10-15T05:42:11.151Z,1.52
2022-10-15T05:44:41.453Z,1.80
2022-10-15T05:47:12.038Z,4.03
2022-10-15T05:49:40.550Z,1.90
2022-10-15T05:52:21.398Z,1.83
2022-10-15T05:55:07.643Z,2.42
2022-10-15T05:57:34.191Z,5.72
2022-10-15T06:00:05.319Z,6.85
2022-10-15T06:02:38.571Z,6.95
2022-10-15T06:05:07.425Z,8.02
2022-10-15T06:07:33.898Z,3.15
2022-10-15T06:10:05.519Z,2.20
2022-10-15T06:12:33.849Z,3.83
2022-10-15T06:15:00.609Z,2.20
2022-10-15T06:17:27.384Z,4.78
2022-10-15T06:19:54.144Z,5.60
2022-10-15T06:22:21.790Z,7.40
2022-10-15T06:24:48.331Z,9.10
2022-10-15T06:27:15.186Z,12.43
2022-10-15T06:29:41.717Z,5.57
2022-10-15T06:32:12.824Z,6.90
2022-10-15T06:34:45.514Z,2.47
2022-10-15T06:37:12.199Z,1.88
2022-10-15T06:39:41.209Z,3.50
2022-10-15T06:42:07.993Z,1.75
2022-10-15T06:44:41.668Z,1.40
2022-10-15T06:47:08.600Z,2.25
2022-10-15T06:49:35.140Z,1.63
2022-10-15T06:52:03.918Z,1.30
2022-10-15T06:54:30.714Z,5.78
2022-10-15T06:56:57.632Z,1.90
2022-10-15T06:59:24.238Z,1.50
2022-10-15T07:01:50.934Z,1.77
2022-10-15T07:04:18.999Z,1.50
2022-10-15T07:06:45.752Z,1.30
2022-10-15T07:09:12.399Z,1.23
2022-10-15T07:11:39.104Z,2.08
2022-10-15T07:14:05.718Z,2.67
2022-10-15T07:16:32.755Z,1.10
2022-10-15T07:18:59.653Z,1.17
2022-10-15T07:21:27.249Z,1.10
2022-10-15T07:23:54.678Z,1.45
2022-10-15T07:26:22.725Z,1.42
2022-10-15T07:28:49.989Z,1.10
2022-10-15T07:31:16.691Z,1.60
2022-10-15T07:33:44.737Z,1.48
2022-10-15T07:36:14.966Z,1.50
2022-10-15T07:38:42.183Z,1.52
2022-10-15T07:41:10.907Z,1.27
2022-10-15T07:43:42.630Z,1.20
2022-10-15T07:46:09.401Z,2.40
2022-10-15T07:48:36.245Z,2.63
2022-10-15T07:51:05.790Z,1.83
2022-10-15T07:53:33.086Z,0.90
2022-10-15T07:56:01.581Z,1.30
2022-10-15T07:58:34.620Z,1.10
2022-10-15T08:01:06.256Z,0.95
2022-10-15T08:03:35.130Z,1.08
2022-10-15T08:06:03.540Z,0.75
2022-10-15T08:08:30.539Z,1.23
2022-10-15T08:10:58.054Z,1.23
2022-10-15T08:13:25.906Z,1.92
2022-10-15T08:15:57.616Z,0.90
2022-10-15T08:18:27.052Z,1.83
2022-10-15T08:20:53.849Z,0.80
2022-10-15T08:23:20.406Z,4.85
2022-10-15T08:25:47.421Z,2.03
2022-10-15T08:28:14.094Z,8.07
2022-10-15T08:30:40.661Z,1.48
2022-10-15T08:33:12.729Z,2.25
2022-10-15T08:35:43.797Z,2.97
2022-10-15T08:38:14.790Z,2.78
2022-10-15T08:40:54.025Z,1.30
2022-10-15T08:43:34.986Z,3.60
2022-10-15T08:46:10.172Z,0.70
2022-10-15T08:48:42.807Z,1.33
2022-10-15T08:51:24.768Z,1.02
2022-10-15T08:53:56.717Z,0.63
2022-10-15T08:56:43.997Z,1.00
2022-10-15T08:59:31.902Z,0.60
2022-10-15T09:02:05.322Z,0.60
2022-10-15T09:04:59.223Z,0.63
2022-10-15T09:07:53.581Z,2.13
2022-10-15T09:10:40.186Z,0.50
2022-10-15T09:13:31.315Z,0.40
2022-10-15T09:16:03.461Z,0.35
2022-10-15T09:18:33.841Z,1.20
2022-10-15T09:21:04.319Z,2.05
2022-10-15T09:23:34.076Z,1.27
2022-10-15T09:26:18.341Z,1.00
2022-10-15T09:28:56.588Z,2.25
2022-10-15T09:31:32.050Z,1.58
2022-10-15T09:34:03.682Z,0.50
2022-10-15T09:36:33.346Z,0.77
2022-10-15T09:39:41.219Z,1.98
2022-10-15T09:42:23.712Z,0.30
2022-10-15T09:44:52.230Z,0.63
2022-10-15T09:47:27.165Z,1.20
2022-10-15T09:49:59.976Z,0.47
2022-10-15T09:52:35.894Z,3.03
2022-10-15T09:55:24.550Z,1.52
2022-10-15T09:57:54.770Z,2.20
2022-10-15T10:00:22.812Z,2.92
2022-10-15T10:03:07.862Z,2.78
2022-10-15T10:05:38.930Z,2.70
2022-10-15T10:11:20.921Z,2.38
2022-10-15T10:13:56.618Z,5.43
2022-10-15T10:16:25.040Z,3.60
2022-10-15T10:19:11.420Z,4.78
2022-10-15T10:21:41.721Z,6.20
2022-10-15T10:24:32.118Z,2.10
2022-10-15T10:26:59.595Z,1.90
2022-10-15T10:29:35.264Z,4.40
2022-10-15T10:32:28.575Z,2.85
2022-10-15T10:34:56.265Z,3.33
2022-10-15T10:37:23.372Z,2.80
2022-10-15T10:39:54.831Z,5.50
2022-10-15T10:42:21.611Z,3.65
2022-10-15T10:44:53.632Z,5.35
2022-10-15T10:47:21.558Z,2.20
2022-10-15T10:49:55.771Z,3.50
2022-10-15T10:52:35.595Z,0.95
2022-10-15T10:55:22.198Z,4.18
2022-10-15T10:58:00.118Z,0.75
2022-10-15T11:00:39.817Z,1.10
2022-10-15T11:03:27.383Z,0.85
2022-10-15T11:06:25.770Z,1.33
2022-10-15T11:08:58.798Z,1.02
2022-10-15T11:11:31.706Z,1.08
2022-10-15T11:14:04.959Z,0.70
2022-10-15T11:17:01.224Z,0.30
2022-10-15T11:20:05.605Z,1.55
2022-10-15T11:22:48.490Z,3.42
2022-10-15T11:25:25.937Z,1.02
2022-10-15T11:28:03.600Z,0.38
2022-10-15T11:30:59.717Z,1.10
2022-10-15T11:33:44.695Z,1.20
2022-10-15T11:36:38.636Z,1.35
2022-10-15T11:39:14.413Z,1.65
2022-10-15T11:42:02.789Z,0.63
2022-10-15T11:44:58.066Z,0.95
2022-10-15T11:47:47.198Z,0.77
2022-10-15T11:50:30.772Z,0.68
2022-10-15T11:53:19.044Z,1.67
2022-10-15T11:55:59.740Z,0.70
2022-10-15T11:58:37.753Z,0.98
2022-10-15T12:01:37.482Z,1.10
2022-10-15T12:04:32.718Z,0.40
2022-10-15T12:07:06.889Z,0.57
2022-10-15T12:09:41.282Z,1.23
2022-10-15T12:12:17.528Z,0.75
2022-10-15T12:15:14.295Z,0.60
2022-10-15T12:17:45.039Z,1.52
2022-10-15T12:20:14.353Z,0.73
2022-10-15T12:22:55.532Z,0.85
2022-10-15T12:25:36.014Z,0.40
2022-10-15T12:28:23.872Z,0.30
2022-10-15T12:30:57.394Z,0.20
2022-10-15T12:33:31.118Z,1.58
2022-10-15T12:36:09.560Z,2.03
2022-10-15T12:38:42.611Z,0.80
2022-10-15T12:41:11.782Z,1.30
2022-10-15T12:43:48.568Z,0.17
2022-10-15T12:46:15.317Z,0.98
2022-10-15T12:48:44.922Z,0.22
2022-10-15T12:51:23.744Z,0.55
2022-10-15T12:53:52.077Z,0.30
2022-10-15T12:56:25.240Z,2.17
2022-10-15T12:58:56.618Z,0.30
2022-10-15T13:01:23.846Z,0.40
2022-10-15T13:03:56.158Z,1.30
2022-10-15T13:06:22.861Z,0.73
2022-10-15T13:09:01.200Z,0.68
2022-10-15T13:11:34.869Z,1.58
2022-10-15T13:14:15.202Z,4.20
2022-10-15T13:16:46.887Z,0.50
2022-10-15T13:19:27.852Z,0.95
2022-10-15T13:22:00.310Z,0.50
2022-10-15T13:24:31.018Z,2.35
2022-10-15T13:27:00.538Z,0.30
2022-10-15T13:29:28.636Z,0.70
2022-10-15T13:31:58.234Z,0.30
2022-10-15T13:34:36.003Z,1.83
2022-10-15T13:37:05.430Z,0.73
2022-10-15T13:39:39.480Z,0.80
2022-10-15T13:42:08.919Z,0.68
2022-10-15T13:44:36.523Z,0.70
2022-10-15T13:47:17.404Z,0.80
2022-10-15T13:49:43.979Z,1.30
2022-10-15T13:52:10.515Z,3.33
2022-10-15T13:54:37.680Z,2.28
2022-10-15T13:57:04.524Z,0.75
2022-10-15T13:59:32.073Z,0.47
2022-10-15T14:02:02.159Z,1.95
2022-10-15T14:04:31.035Z,2.10
2022-10-15T14:07:04.962Z,1.15
2022-10-15T14:09:38.620Z,2.22
2022-10-15T14:12:09.155Z,0.50
2022-10-15T14:14:41.992Z,0.60
2022-10-15T14:17:14.541Z,0.47
2022-10-15T14:19:41.189Z,1.65
2022-10-15T14:22:19.109Z,1.63
2022-10-15T14:24:50.709Z,0.93
2022-10-15T14:27:22.008Z,0.60
2022-10-15T14:29:51.734Z,0.80
2022-10-15T14:32:30.566Z,0.60
2022-10-15T14:35:06.240Z,1.15
2022-10-15T14:37:43.708Z,2.42
2022-10-15T14:40:10.837Z,1.05
2022-10-15T14:43:00.554Z,0.63
2022-10-15T14:45:31.918Z,0.77
2022-10-15T14:48:03.196Z,0.60
2022-10-15T14:50:33.133Z,0.70
2022-10-15T14:53:05.408Z,2.08
2022-10-15T14:55:38.245Z,1.00
2022-10-15T14:58:11.547Z,1.25
2022-10-15T15:00:47.181Z,0.88
2022-10-15T15:03:20.094Z,0.75
2022-10-15T15:05:56.505Z,0.80
2022-10-15T15:08:25.783Z,1.80
2022-10-15T15:10:56.674Z,1.33
2022-10-15T15:13:26.990Z,1.70
2022-10-15T15:15:53.881Z,0.73
2022-10-15T15:18:20.934Z,1.27
2022-10-15T15:20:49.248Z,1.05
2022-10-15T15:23:25.729Z,0.95
2022-10-15T15:25:53.303Z,1.15
2022-10-15T15:28:24.114Z,0.70
2022-10-15T15:30:57.334Z,1.20
2022-10-15T15:33:24.349Z,1.77
2022-10-15T15:35:54.600Z,2.00
2022-10-15T15:38:24.144Z,0.68
2022-10-15T15:40:51.339Z,2.10
2022-10-15T15:43:19.809Z,1.08
2022-10-15T15:45:46.625Z,2.25
2022-10-15T15:48:17.486Z,2.47
2022-10-15T15:50:44.115Z,3.42
2022-10-15T15:53:12.806Z,5.53
2022-10-15T15:55:39.631Z,3.28
2022-10-15T15:58:06.742Z,2.00
2022-10-15T16:00:33.419Z,3.78
2022-10-15T16:03:00.020Z,2.15
2022-10-15T16:05:26.704Z,5.90
2022-10-15T16:07:53.556Z,3.88
2022-10-15T16:10:20.314Z,2.78
2022-10-15T16:12:47.098Z,3.45
2022-10-15T16:15:14.984Z,2.95
2022-10-15T16:17:43.525Z,3.40
2022-10-15T16:20:11.022Z,1.67
2022-10-15T16:22:38.030Z,2.83
2022-10-15T16:25:05.227Z,2.80
2022-10-15T16:27:34.339Z,1.10
2022-10-15T16:30:03.550Z,2.97
2022-10-15T16:32:30.077Z,1.27
2022-10-15T16:34:56.757Z,1.45
2022-10-15T16:37:23.622Z,2.95
2022-10-15T16:39:50.755Z,1.38
2022-10-15T16:44:49.494Z,1.13
2022-10-15T16:47:16.588Z,2.65
2022-10-15T16:49:43.298Z,2.10
2022-10-15T16:52:10.998Z,2.20
2022-10-15T16:54:37.724Z,1.60
2022-10-15T16:57:05.550Z,1.80
2022-10-15T16:59:32.155Z,2.03
2022-10-15T17:01:59.129Z,2.03
2022-10-15T17:04:25.882Z,3.25
2022-10-15T17:06:53.508Z,4.13
2022-10-15T17:09:21.248Z,2.20
2022-10-15T17:11:48.363Z,2.38
2022-10-15T17:14:18.186Z,2.88
2022-10-15T17:16:50.528Z,2.00
2022-10-15T17:19:20.751Z,1.38
2022-10-15T17:21:47.668Z,1.20
2022-10-15T17:24:17.343Z,1.55
2022-10-15T17:26:45.598Z,2.47
2022-10-15T17:29:16.427Z,2.45
2022-10-15T17:31:43.343Z,1.42
2022-10-15T17:34:11.631Z,3.63
2022-10-15T17:36:45.654Z,2.25
2022-10-15T17:39:13.972Z,3.83
2022-10-15T17:41:40.536Z,1.45
2022-10-15T17:44:07.503Z,2.22
2022-10-15T17:46:34.108Z,1.80
2022-10-15T17:49:00.887Z,2.17
2022-10-15T17:51:30.356Z,3.47
2022-10-15T17:54:00.324Z,3.60
2022-10-15T17:56:29.927Z,2.90
2022-10-15T17:58:58.555Z,1.50
2022-10-15T18:01:56.183Z,3.58
2022-10-15T18:04:17.260Z,1.75
2022-10-15T18:06:45.151Z,1.85
2022-10-15T18:09:23.592Z,2.05
2022-10-15T18:11:50.759Z,1.48
2022-10-15T18:14:17.368Z,2.65
2022-10-15T18:16:44.322Z,2.42
2022-10-15T18:19:11.857Z,3.97
2022-10-15T18:21:38.333Z,1.90
2022-10-15T18:24:05.045Z,3.47
2022-10-15T18:26:32.230Z,2.10
2022-10-15T18:28:59.035Z,3.00
2022-10-15T18:31:26.210Z,2.15
2022-10-15T18:33:56.054Z,2.30
2022-10-15T18:36:28.441Z,5.15
2022-10-15T18:38:57.306Z,3.10
2022-10-15T18:41:30.006Z,1.70
2022-10-15T18:43:59.393Z,3.50
2022-10-15T18:46:30.672Z,1.80
2022-10-15T18:48:58.922Z,2.45
2022-10-15T18:51:26.679Z,1.73
2022-10-15T18:53:53.661Z,4.00
2022-10-15T18:56:22.046Z,2.13
2022-10-15T18:58:48.881Z,1.83
2022-10-15T19:01:33.821Z,5.68
2022-10-15T19:04:17.081Z,1.80
2022-10-15T19:06:46.431Z,4.63
2022-10-15T19:09:16.400Z,3.65
2022-10-15T19:11:44.398Z,3.38
2022-10-15T19:14:12.458Z,3.00
2022-10-15T19:16:39.026Z,4.82
2022-10-15T19:19:15.595Z,5.25
2022-10-15T19:21:47.319Z,3.58
2022-10-15T19:24:15.762Z,1.40
2022-10-15T19:26:43.056Z,1.50
2022-10-15T19:29:09.632Z,1.92
2022-10-15T19:31:39.054Z,0.60
2022-10-15T19:34:06.116Z,0.75
2022-10-15T19:36:41.841Z,1.98
2022-10-15T19:39:12.485Z,3.03
2022-10-15T19:41:41.565Z,1.25
2022-10-15T19:44:09.609Z,2.20
2022-10-15T19:46:40.156Z,2.25
2022-10-15T19:49:08.338Z,1.95
2022-10-15T19:51:35.275Z,4.80
2022-10-15T19:54:02.027Z,2.45
2022-10-15T19:56:33.282Z,1.25
2022-10-15T19:59:02.559Z,4.40
2022-10-15T20:01:32.542Z,3.58
2022-10-15T20:04:07.024Z,2.13
2022-10-15T20:06:35.301Z,2.80
2022-10-15T20:09:02.358Z,4.00
2022-10-15T20:11:29.669Z,3.08
2022-10-15T20:13:56.435Z,2.67
2022-10-15T20:16:23.779Z,3.75
2022-10-15T20:18:52.088Z,3.35
2022-10-15T20:21:22.895Z,3.10
2022-10-15T20:23:50.559Z,3.30
2022-10-15T20:26:17.638Z,5.63
2022-10-15T20:28:46.312Z,3.78
2022-10-15T20:31:17.517Z,2.47
2022-10-15T20:33:45.189Z,1.80
2022-10-15T20:36:22.592Z,3.33
2022-10-15T20:38:51.208Z,1.70
2022-10-15T20:41:18.665Z,4.50
2022-10-15T20:43:47.239Z,3.40
2022-10-15T20:46:19.662Z,3.88
2022-10-15T20:48:47.327Z,1.90
2022-10-15T20:51:17.888Z,2.58
2022-10-15T20:53:45.668Z,3.55
2022-10-15T20:56:14.242Z,4.28
2022-10-15T20:58:42.161Z,5.47
2022-10-15T21:01:10.363Z,3.50
2022-10-15T21:03:37.427Z,2.47
2022-10-15T21:06:04.285Z,1.33
2022-10-15T21:08:31.141Z,2.60
2022-10-15T21:11:06.821Z,5.13
2022-10-15T21:13:34.017Z,7.30
2022-10-15T21:16:06.587Z,7.22
2022-10-15T21:18:35.680Z,8.13
2022-10-15T21:21:08.661Z,3.92
2022-10-15T21:23:36.333Z,5.63
2022-10-15T21:26:11.390Z,4.32
2022-10-15T21:28:38.280Z,8.48
2022-10-15T21:31:09.866Z,5.90
2022-10-15T21:33:37.164Z,6.63
2022-10-15T21:36:22.306Z,5.60
2022-10-15T21:38:53.193Z,3.60
2022-10-15T21:41:23.449Z,4.10
2022-10-15T21:46:21.573Z,6.32
2022-10-15T21:48:48.684Z,7.70
2022-10-15T21:51:17.901Z,3.15
2022-10-15T21:53:44.906Z,6.13
2022-10-15T21:56:12.229Z,10.00
2022-10-15T21:58:40.301Z,4.53
2022-10-15T22:01:09.690Z,4.32
2022-10-15T22:03:36.586Z,3.58
2022-10-15T22:06:03.989Z,5.22
2022-10-15T22:08:31.801Z,3.78
2022-10-15T22:11:15.363Z,3.28
2022-10-15T22:13:44.714Z,2.25
2022-10-15T22:16:12.467Z,1.10
2022-10-15T22:18:40.613Z,2.20
2022-10-15T22:21:15.825Z,1.27
2022-10-15T22:24:00.683Z,0.90
2022-10-15T22:26:30.470Z,2.47
2022-10-15T22:29:01.330Z,5.10
2022-10-15T22:31:30.388Z,0.50
2022-10-15T22:34:00.736Z,0.40
2022-10-15T22:36:31.645Z,1.38
2022-10-15T22:39:01.870Z,1.48
2022-10-15T22:41:31.406Z,1.10
2022-10-15T22:43:58.704Z,0.80
2022-10-15T22:46:37.066Z,0.60
2022-10-15T22:49:04.401Z,3.45
2022-10-15T22:51:31.815Z,1.30
2022-10-15T22:53:58.852Z,0.20
2022-10-15T22:56:28.672Z,0.50
2022-10-15T22:58:56.988Z,1.38
2022-10-15T23:01:29.654Z,0.25
2022-10-15T23:03:58.937Z,0.57
2022-10-15T23:06:26.048Z,0.68
2022-10-15T23:08:52.879Z,0.40
2022-10-15T23:11:22.454Z,0.30
2022-10-15T23:13:53.913Z,1.02
2022-10-15T23:16:28.990Z,1.30
2022-10-15T23:18:58.840Z,0.40
2022-10-15T23:21:38.242Z,1.88
2022-10-15T23:24:06.144Z,1.45
2022-10-15T23:26:33.216Z,1.65
2022-10-15T23:29:01.693Z,0.20
2022-10-15T23:31:31.194Z,2.08
2022-10-15T23:33:58.647Z,0.77
2022-10-15T23:36:27.448Z,1.08
2022-10-15T23:38:57.302Z,1.50
2022-10-15T23:41:26.804Z,1.15
2022-10-15T23:43:53.915Z,1.33
2022-10-15T23:46:20.997Z,2.22
2022-10-15T23:48:48.561Z,1.10
2022-10-15T23:51:22.811Z,1.33
2022-10-15T23:53:50.662Z,2.03
2022-10-15T23:56:18.336Z,2.60
2022-10-15T23:58:53.023Z,2.03
